Share

Marysville, KS

Marshall Army Air Field (KFRI) Elev 1063 ft | 39.06 °N, 96.76 °W | Change Station

Current weather conditions updated 10 minutes ago

Partly Cloudy
Partly Cloudy
70 °F
Feels Like 70 °F
N
13
Wind Variable Wind from SSE
Gusts 24 mph
Sunrise 6:44 AM
Sunset 8:07 PM
Moon Waning Gibbous

Today is forecast to be Much Warmer than yesterday.

Pressure 30.18 in
Visibility 10.0 miles
Clouds Few 21000 ft
Dew Point 42 °F
Humidity 37%
Rainfall 0.00 in
Snow Depth Not available.
UV 8 out of 16
Pollen 10.80 out of 12
Air Quality Not available.
Flu Activity Sporadic
METAR KFRI 181958Z AUTO 15011G21KT 10SM FEW210 21/06 A3018 RMK AO2 SLP219 T02090055

More Conditions Fewer Conditions

Pressure 30.18 in
Visibility 10.0 miles
Clouds Few 21000 ft
Dew Point 42 °F
Humidity 37%
Rainfall 0.00 in
Snow Depth Not available.
UV 8 out of 16
Pollen 10.80 out of 12
Air Quality Not available.
Flu Activity Sporadic
METAR KFRI 181958Z AUTO 15011G21KT 10SM FEW210 21/06 A3018 RMK AO2 SLP219 T02090055

More Conditions Fewer Conditions

10-Day Weather Forecast

Almanac

Astronomy

Apr. 18, 2014 Rise Set
Actual Time 6:44 AM CDT 8:07 PM CDT
Civil Twilight 6:16 AM CDT 8:36 PM CDT
Nautical Twilight 5:42 AM CDT 9:10 PM CDT
Astronomical Twilight 5:06 AM CDT 9:45 PM CDT
Moon 11:54 PM CDT 9:07 AM CDT
Length of Visible Light 14h 19m
Length of Day
13h 23m
Tomorrow will be 2m 27s longer.
Waning Gibbous, 86% of the Moon is Illuminated
Today
Waning Gibbous
Apr 22
Last Quarter
Apr 29
New
May 6
First Quarter
May 14
Full

Today's Extremes

State Highs State Lows

Community

  • What's for Lunch?
    What's for Lunch?
  • SUNRISE THROUGH THE TREES.
    SUNRISE THROUGH THE TREES.
  • Dog Wood Blossoms
    Dog Wood Blossoms
  • Morning Light
    Morning Light
  • New Day
    New Day

WunderPhotos

Upload Photos

1,702,484 photos uploaded!

WunderBlogs® & News

Nearby

Snow Depth

Station Depth Elevation
No new snow has been reported.

Coastal Water Temperatures

Place Temperature
No Stations Reporting

Earthquake Activity

City Distance Mag. Time & Date
No recent earthquake activity has been reported nearby.
Minimum magnitude displayed is 2.5.

Nearby Weather Stations

There are no personal weather stations in this area.

What do you think?

We're not finished. Please let us know what you like, what you don't like, and what you are still missing.